sensor_id;sensor_type;location;lat;lon;timestamp;P1;durP1;ratioP1;P2;durP2;ratioP2
26820;SDS011;37186;51.394;5.454;2023-08-07T00:01:55;2.38;;;2.38;;
26820;SDS011;37186;51.394;5.454;2023-08-07T00:04:56;2.38;;;2.38;;
26820;SDS011;37186;51.394;5.454;2023-08-07T00:07:57;2.50;;;2.50;;
26820;SDS011;37186;51.394;5.454;2023-08-07T00:11:07;2.40;;;2.40;;
26820;SDS011;37186;51.394;5.454;2023-08-07T00:14:08;2.40;;;2.40;;
26820;SDS011;37186;51.394;5.454;2023-08-07T00:17:09;2.50;;;2.50;;
26820;SDS011;37186;51.394;5.454;2023-08-07T00:20:10;2.45;;;2.45;;
26820;SDS011;37186;51.394;5.454;2023-08-07T00:23:10;2.42;;;2.42;;
26820;SDS011;37186;51.394;5.454;2023-08-07T00:26:11;2.40;;;2.40;;
26820;SDS011;37186;51.394;5.454;2023-08-07T00:29:11;2.42;;;2.42;;
26820;SDS011;37186;51.394;5.454;2023-08-07T00:32:12;2.50;;;2.50;;
26820;SDS011;37186;51.394;5.454;2023-08-07T00:35:13;2.60;;;2.60;;
26820;SDS011;37186;51.394;5.454;2023-08-07T00:38:14;2.40;;;2.40;;
26820;SDS011;37186;51.394;5.454;2023-08-07T00:41:16;2.35;;;2.35;;
26820;SDS011;37186;51.394;5.454;2023-08-07T00:44:18;2.55;;;2.55;;
26820;SDS011;37186;51.394;5.454;2023-08-07T00:47:18;2.40;;;2.40;;
26820;SDS011;37186;51.394;5.454;2023-08-07T00:50:19;2.30;;;2.30;;
26820;SDS011;37186;51.394;5.454;2023-08-07T00:53:20;2.47;;;2.47;;
26820;SDS011;37186;51.394;5.454;2023-08-07T00:56:20;2.58;;;2.58;;
26820;SDS011;37186;51.394;5.454;2023-08-07T00:59:22;2.67;;;2.60;;
26820;SDS011;37186;51.394;5.454;2023-08-07T01:02:22;2.60;;;2.60;;
26820;SDS011;37186;51.394;5.454;2023-08-07T01:05:24;2.40;;;2.40;;
26820;SDS011;37186;51.394;5.454;2023-08-07T01:08:26;2.50;;;2.50;;
26820;SDS011;37186;51.394;5.454;2023-08-07T01:11:34;2.60;;;2.60;;
26820;SDS011;37186;51.394;5.454;2023-08-07T01:17:55;2.65;;;2.65;;
26820;SDS011;37186;51.394;5.454;2023-08-07T01:20:57;2.50;;;2.50;;
26820;SDS011;37186;51.394;5.454;2023-08-07T01:23:58;2.60;;;2.58;;
26820;SDS011;37186;51.394;5.454;2023-08-07T01:27:00;2.78;;;2.67;;
26820;SDS011;37186;51.394;5.454;2023-08-07T01:33:39;2.60;;;2.60;;
26820;SDS011;37186;51.394;5.454;2023-08-07T01:36:48;2.60;;;2.60;;
26820;SDS011;37186;51.394;5.454;2023-08-07T01:39:50;2.65;;;2.65;;
26820;SDS011;37186;51.394;5.454;2023-08-07T01:42:52;2.60;;;2.60;;
26820;SDS011;37186;51.394;5.454;2023-08-07T01:45:53;2.50;;;2.50;;
26820;SDS011;37186;51.394;5.454;2023-08-07T01:48:54;2.42;;;2.42;;
26820;SDS011;37186;51.394;5.454;2023-08-07T01:51:54;2.53;;;2.53;;
26820;SDS011;37186;51.394;5.454;2023-08-07T01:54:55;2.50;;;2.50;;
26820;SDS011;37186;51.394;5.454;2023-08-07T01:57:55;2.30;;;2.30;;
26820;SDS011;37186;51.394;5.454;2023-08-07T02:00:56;2.38;;;2.38;;
26820;SDS011;37186;51.394;5.454;2023-08-07T02:03:57;2.50;;;2.50;;
26820;SDS011;37186;51.394;5.454;2023-08-07T02:06:57;2.63;;;2.58;;
26820;SDS011;37186;51.394;5.454;2023-08-07T02:09:58;3.00;;;2.90;;
26820;SDS011;37186;51.394;5.454;2023-08-07T02:12:58;2.72;;;2.67;;
26820;SDS011;37186;51.394;5.454;2023-08-07T02:15:59;2.97;;;2.88;;
26820;SDS011;37186;51.394;5.454;2023-08-07T02:18:59;2.78;;;2.70;;
26820;SDS011;37186;51.394;5.454;2023-08-07T02:22:00;2.70;;;2.67;;
26820;SDS011;37186;51.394;5.454;2023-08-07T02:25:01;2.55;;;2.55;;
26820;SDS011;37186;51.394;5.454;2023-08-07T02:28:02;2.90;;;2.80;;
26820;SDS011;37186;51.394;5.454;2023-08-07T02:31:03;2.75;;;2.67;;
26820;SDS011;37186;51.394;5.454;2023-08-07T02:34:03;2.67;;;2.63;;
26820;SDS011;37186;51.394;5.454;2023-08-07T02:37:04;3.10;;;3.00;;
26820;SDS011;37186;51.394;5.454;2023-08-07T02:40:04;2.88;;;2.78;;
26820;SDS011;37186;51.394;5.454;2023-08-07T02:43:05;2.90;;;2.80;;
26820;SDS011;37186;51.394;5.454;2023-08-07T02:46:06;2.95;;;2.85;;
26820;SDS011;37186;51.394;5.454;2023-08-07T02:49:06;2.83;;;2.72;;
26820;SDS011;37186;51.394;5.454;2023-08-07T02:52:07;2.83;;;2.72;;
26820;SDS011;37186;51.394;5.454;2023-08-07T02:55:08;2.80;;;2.70;;
26820;SDS011;37186;51.394;5.454;2023-08-07T02:58:08;2.90;;;2.80;;
26820;SDS011;37186;51.394;5.454;2023-08-07T03:01:09;2.70;;;2.70;;
26820;SDS011;37186;51.394;5.454;2023-08-07T03:04:09;2.88;;;2.78;;
26820;SDS011;37186;51.394;5.454;2023-08-07T03:07:10;2.85;;;2.75;;
26820;SDS011;37186;51.394;5.454;2023-08-07T03:10:11;2.70;;;2.70;;
26820;SDS011;37186;51.394;5.454;2023-08-07T03:13:11;2.92;;;2.83;;
26820;SDS011;37186;51.394;5.454;2023-08-07T03:16:12;2.90;;;2.80;;
26820;SDS011;37186;51.394;5.454;2023-08-07T03:19:12;2.90;;;2.80;;
26820;SDS011;37186;51.394;5.454;2023-08-07T03:22:13;3.10;;;3.00;;
26820;SDS011;37186;51.394;5.454;2023-08-07T03:25:14;2.90;;;2.80;;
26820;SDS011;37186;51.394;5.454;2023-08-07T03:28:14;2.72;;;2.67;;
26820;SDS011;37186;51.394;5.454;2023-08-07T03:31:15;2.80;;;2.70;;
26820;SDS011;37186;51.394;5.454;2023-08-07T03:34:16;3.13;;;3.03;;
26820;SDS011;37186;51.394;5.454;2023-08-07T03:37:16;2.90;;;2.80;;
26820;SDS011;37186;51.394;5.454;2023-08-07T03:40:17;3.05;;;2.95;;
26820;SDS011;37186;51.394;5.454;2023-08-07T03:43:17;2.88;;;2.78;;
26820;SDS011;37186;51.394;5.454;2023-08-07T03:46:18;2.75;;;2.67;;
26820;SDS011;37186;51.394;5.454;2023-08-07T03:49:18;2.67;;;2.67;;
26820;SDS011;37186;51.394;5.454;2023-08-07T03:52:19;2.72;;;2.70;;
26820;SDS011;37186;51.394;5.454;2023-08-07T03:55:19;2.65;;;2.65;;
26820;SDS011;37186;51.394;5.454;2023-08-07T03:58:20;2.85;;;2.75;;
26820;SDS011;37186;51.394;5.454;2023-08-07T04:01:20;2.60;;;2.60;;
26820;SDS011;37186;51.394;5.454;2023-08-07T04:04:21;2.90;;;2.80;;
26820;SDS011;37186;51.394;5.454;2023-08-07T04:07:22;3.00;;;2.90;;
26820;SDS011;37186;51.394;5.454;2023-08-07T04:10:22;3.00;;;2.90;;
26820;SDS011;37186;51.394;5.454;2023-08-07T04:13:23;2.80;;;2.70;;
26820;SDS011;37186;51.394;5.454;2023-08-07T04:16:24;2.72;;;2.63;;
26820;SDS011;37186;51.394;5.454;2023-08-07T04:19:25;2.60;;;2.58;;
26820;SDS011;37186;51.394;5.454;2023-08-07T04:22:25;2.75;;;2.67;;
26820;SDS011;37186;51.394;5.454;2023-08-07T04:25:26;2.88;;;2.78;;
26820;SDS011;37186;51.394;5.454;2023-08-07T04:28:27;2.80;;;2.70;;
26820;SDS011;37186;51.394;5.454;2023-08-07T04:31:29;2.88;;;2.78;;
26820;SDS011;37186;51.394;5.454;2023-08-07T04:34:32;2.60;;;2.60;;
26820;SDS011;37186;51.394;5.454;2023-08-07T04:37:33;2.78;;;2.70;;
26820;SDS011;37186;51.394;5.454;2023-08-07T04:40:33;2.53;;;2.53;;
26820;SDS011;37186;51.394;5.454;2023-08-07T04:43:34;2.60;;;2.60;;
26820;SDS011;37186;51.394;5.454;2023-08-07T04:46:35;2.75;;;2.70;;
26820;SDS011;37186;51.394;5.454;2023-08-07T04:49:35;2.90;;;2.80;;
26820;SDS011;37186;51.394;5.454;2023-08-07T04:52:36;2.67;;;2.65;;
26820;SDS011;37186;51.394;5.454;2023-08-07T04:55:36;2.50;;;2.50;;
26820;SDS011;37186;51.394;5.454;2023-08-07T04:58:37;2.60;;;2.60;;
26820;SDS011;37186;51.394;5.454;2023-08-07T05:01:37;2.42;;;2.42;;
26820;SDS011;37186;51.394;5.454;2023-08-07T05:04:38;2.63;;;2.63;;
26820;SDS011;37186;51.394;5.454;2023-08-07T05:07:39;2.42;;;2.42;;
26820;SDS011;37186;51.394;5.454;2023-08-07T05:10:39;3.00;;;2.90;;
26820;SDS011;37186;51.394;5.454;2023-08-07T05:13:40;2.80;;;2.72;;
26820;SDS011;37186;51.394;5.454;2023-08-07T05:16:40;2.72;;;2.67;;
26820;SDS011;37186;51.394;5.454;2023-08-07T05:19:41;2.78;;;2.70;;
26820;SDS011;37186;51.394;5.454;2023-08-07T05:22:42;2.65;;;2.65;;
26820;SDS011;37186;51.394;5.454;2023-08-07T05:25:44;2.45;;;2.45;;
26820;SDS011;37186;51.394;5.454;2023-08-07T05:28:47;2.60;;;2.60;;
26820;SDS011;37186;51.394;5.454;2023-08-07T05:31:47;2.53;;;2.53;;
26820;SDS011;37186;51.394;5.454;2023-08-07T05:34:48;2.75;;;2.65;;
26820;SDS011;37186;51.394;5.454;2023-08-07T05:37:48;2.80;;;2.70;;
26820;SDS011;37186;51.394;5.454;2023-08-07T05:40:49;2.50;;;2.50;;
26820;SDS011;37186;51.394;5.454;2023-08-07T05:43:49;2.60;;;2.60;;
26820;SDS011;37186;51.394;5.454;2023-08-07T05:46:50;2.60;;;2.60;;
26820;SDS011;37186;51.394;5.454;2023-08-07T05:49:51;2.65;;;2.63;;
26820;SDS011;37186;51.394;5.454;2023-08-07T05:52:51;2.80;;;2.72;;
26820;SDS011;37186;51.394;5.454;2023-08-07T05:55:52;2.85;;;2.75;;
26820;SDS011;37186;51.394;5.454;2023-08-07T05:58:52;2.60;;;2.60;;
26820;SDS011;37186;51.394;5.454;2023-08-07T06:01:53;2.53;;;2.53;;
26820;SDS011;37186;51.394;5.454;2023-08-07T06:04:53;2.53;;;2.53;;
26820;SDS011;37186;51.394;5.454;2023-08-07T06:07:54;2.67;;;2.67;;
26820;SDS011;37186;51.394;5.454;2023-08-07T06:10:55;2.58;;;2.58;;
26820;SDS011;37186;51.394;5.454;2023-08-07T06:13:55;2.58;;;2.58;;
26820;SDS011;37186;51.394;5.454;2023-08-07T06:16:56;2.67;;;2.65;;
26820;SDS011;37186;51.394;5.454;2023-08-07T06:20:01;2.60;;;2.60;;
26820;SDS011;37186;51.394;5.454;2023-08-07T06:23:04;2.70;;;2.67;;
26820;SDS011;37186;51.394;5.454;2023-08-07T06:26:04;2.90;;;2.80;;
26820;SDS011;37186;51.394;5.454;2023-08-07T06:29:07;2.67;;;2.65;;
26820;SDS011;37186;51.394;5.454;2023-08-07T06:32:08;2.42;;;2.42;;
26820;SDS011;37186;51.394;5.454;2023-08-07T06:35:10;2.80;;;2.70;;
26820;SDS011;37186;51.394;5.454;2023-08-07T06:38:11;2.60;;;2.60;;
26820;SDS011;37186;51.394;5.454;2023-08-07T06:41:12;2.53;;;2.53;;
26820;SDS011;37186;51.394;5.454;2023-08-07T06:44:12;2.60;;;2.60;;
26820;SDS011;37186;51.394;5.454;2023-08-07T06:47:13;2.58;;;2.58;;
26820;SDS011;37186;51.394;5.454;2023-08-07T06:50:13;2.60;;;2.60;;
26820;SDS011;37186;51.394;5.454;2023-08-07T06:53:14;2.55;;;2.55;;
26820;SDS011;37186;51.394;5.454;2023-08-07T06:56:15;2.70;;;2.67;;
26820;SDS011;37186;51.394;5.454;2023-08-07T06:59:15;2.60;;;2.60;;
26820;SDS011;37186;51.394;5.454;2023-08-07T07:02:16;2.58;;;2.58;;
26820;SDS011;37186;51.394;5.454;2023-08-07T07:05:16;2.70;;;2.67;;
26820;SDS011;37186;51.394;5.454;2023-08-07T07:08:17;2.78;;;2.70;;
26820;SDS011;37186;51.394;5.454;2023-08-07T07:11:18;2.83;;;2.72;;
26820;SDS011;37186;51.394;5.454;2023-08-07T07:14:18;2.75;;;2.67;;
26820;SDS011;37186;51.394;5.454;2023-08-07T07:17:19;2.88;;;2.78;;
26820;SDS011;37186;51.394;5.454;2023-08-07T07:20:19;2.80;;;2.70;;
26820;SDS011;37186;51.394;5.454;2023-08-07T07:23:20;2.90;;;2.80;;
26820;SDS011;37186;51.394;5.454;2023-08-07T07:26:21;3.03;;;2.92;;
26820;SDS011;37186;51.394;5.454;2023-08-07T07:29:21;3.08;;;2.97;;
26820;SDS011;37186;51.394;5.454;2023-08-07T07:32:22;3.10;;;3.00;;
26820;SDS011;37186;51.394;5.454;2023-08-07T07:35:23;3.00;;;2.90;;
26820;SDS011;37186;51.394;5.454;2023-08-07T07:38:24;2.60;;;2.60;;
26820;SDS011;37186;51.394;5.454;2023-08-07T07:41:26;2.60;;;2.60;;
26820;SDS011;37186;51.394;5.454;2023-08-07T07:44:27;2.60;;;2.60;;
26820;SDS011;37186;51.394;5.454;2023-08-07T07:47:29;2.40;;;2.40;;
26820;SDS011;37186;51.394;5.454;2023-08-07T07:50:29;2.25;;;2.25;;
26820;SDS011;37186;51.394;5.454;2023-08-07T07:53:30;2.38;;;2.38;;
26820;SDS011;37186;51.394;5.454;2023-08-07T07:56:31;2.35;;;2.35;;
26820;SDS011;37186;51.394;5.454;2023-08-07T07:59:31;2.63;;;2.60;;
26820;SDS011;37186;51.394;5.454;2023-08-07T08:02:32;2.78;;;2.67;;
26820;SDS011;37186;51.394;5.454;2023-08-07T08:05:32;2.40;;;2.40;;
26820;SDS011;37186;51.394;5.454;2023-08-07T08:08:33;2.47;;;2.47;;
26820;SDS011;37186;51.394;5.454;2023-08-07T08:11:34;2.50;;;2.50;;
26820;SDS011;37186;51.394;5.454;2023-08-07T08:14:34;2.33;;;2.33;;
26820;SDS011;37186;51.394;5.454;2023-08-07T08:17:35;2.47;;;2.47;;
26820;SDS011;37186;51.394;5.454;2023-08-07T08:20:36;2.58;;;2.55;;
26820;SDS011;37186;51.394;5.454;2023-08-07T08:23:37;2.75;;;2.65;;
26820;SDS011;37186;51.394;5.454;2023-08-07T08:26:38;2.78;;;2.70;;
26820;SDS011;37186;51.394;5.454;2023-08-07T08:29:39;2.95;;;2.85;;
26820;SDS011;37186;51.394;5.454;2023-08-07T08:32:39;2.63;;;2.63;;
26820;SDS011;37186;51.394;5.454;2023-08-07T08:35:40;2.80;;;2.70;;
26820;SDS011;37186;51.394;5.454;2023-08-07T08:38:41;2.80;;;2.70;;
26820;SDS011;37186;51.394;5.454;2023-08-07T08:41:41;2.60;;;2.60;;
26820;SDS011;37186;51.394;5.454;2023-08-07T08:44:53;2.28;;;2.28;;
26820;SDS011;37186;51.394;5.454;2023-08-07T08:47:56;2.55;;;2.55;;
26820;SDS011;37186;51.394;5.454;2023-08-07T08:51:02;2.60;;;2.60;;
26820;SDS011;37186;51.394;5.454;2023-08-07T08:54:04;2.40;;;2.40;;
26820;SDS011;37186;51.394;5.454;2023-08-07T08:57:06;2.40;;;2.40;;
26820;SDS011;37186;51.394;5.454;2023-08-07T09:00:07;2.40;;;2.40;;
26820;SDS011;37186;51.394;5.454;2023-08-07T09:03:16;2.50;;;2.50;;
26820;SDS011;37186;51.394;5.454;2023-08-07T09:06:18;2.38;;;2.38;;
26820;SDS011;37186;51.394;5.454;2023-08-07T09:09:20;2.85;;;2.75;;
26820;SDS011;37186;51.394;5.454;2023-08-07T09:12:23;2.35;;;2.35;;
26820;SDS011;37186;51.394;5.454;2023-08-07T09:15:27;2.72;;;2.67;;
26820;SDS011;37186;51.394;5.454;2023-08-07T09:18:29;2.60;;;2.60;;
26820;SDS011;37186;51.394;5.454;2023-08-07T09:21:31;2.92;;;2.83;;
26820;SDS011;37186;51.394;5.454;2023-08-07T09:24:31;2.40;;;2.40;;
26820;SDS011;37186;51.394;5.454;2023-08-07T09:27:32;2.53;;;2.53;;
26820;SDS011;37186;51.394;5.454;2023-08-07T09:30:36;2.58;;;2.58;;
26820;SDS011;37186;51.394;5.454;2023-08-07T09:33:38;2.47;;;2.47;;
26820;SDS011;37186;51.394;5.454;2023-08-07T09:36:39;2.47;;;2.47;;
26820;SDS011;37186;51.394;5.454;2023-08-07T09:39:41;2.50;;;2.50;;
26820;SDS011;37186;51.394;5.454;2023-08-07T09:42:42;3.03;;;2.92;;
26820;SDS011;37186;51.394;5.454;2023-08-07T09:45:42;3.15;;;3.05;;
26820;SDS011;37186;51.394;5.454;2023-08-07T09:48:43;3.20;;;3.10;;
26820;SDS011;37186;51.394;5.454;2023-08-07T09:51:44;3.15;;;3.05;;
26820;SDS011;37186;51.394;5.454;2023-08-07T09:54:46;3.22;;;3.13;;
26820;SDS011;37186;51.394;5.454;2023-08-07T09:57:46;3.20;;;3.10;;
26820;SDS011;37186;51.394;5.454;2023-08-07T10:00:48;3.30;;;3.20;;
26820;SDS011;37186;51.394;5.454;2023-08-07T10:03:49;3.42;;;3.33;;
26820;SDS011;37186;51.394;5.454;2023-08-07T10:06:50;3.30;;;3.20;;
26820;SDS011;37186;51.394;5.454;2023-08-07T10:09:51;3.35;;;3.25;;
26820;SDS011;37186;51.394;5.454;2023-08-07T10:12:52;3.10;;;3.00;;
26820;SDS011;37186;51.394;5.454;2023-08-07T10:15:54;3.38;;;3.28;;
26820;SDS011;37186;51.394;5.454;2023-08-07T10:18:55;3.15;;;3.05;;
26820;SDS011;37186;51.394;5.454;2023-08-07T10:21:56;3.03;;;2.92;;
26820;SDS011;37186;51.394;5.454;2023-08-07T10:24:59;3.35;;;3.25;;
26820;SDS011;37186;51.394;5.454;2023-08-07T10:28:02;3.38;;;3.28;;
26820;SDS011;37186;51.394;5.454;2023-08-07T10:31:06;3.60;;;3.50;;
26820;SDS011;37186;51.394;5.454;2023-08-07T10:34:07;4.13;;;4.03;;
26820;SDS011;37186;51.394;5.454;2023-08-07T10:37:08;3.92;;;3.83;;
26820;SDS011;37186;51.394;5.454;2023-08-07T10:40:28;4.07;;;3.97;;
26820;SDS011;37186;51.394;5.454;2023-08-07T10:43:35;3.80;;;3.70;;
26820;SDS011;37186;51.394;5.454;2023-08-07T10:47:14;4.25;;;4.15;;
26820;SDS011;37186;51.394;5.454;2023-08-07T10:50:09;4.20;;;4.10;;
26820;SDS011;37186;51.394;5.454;2023-08-07T10:53:09;4.10;;;4.00;;
26820;SDS011;37186;51.394;5.454;2023-08-07T10:56:28;3.35;;;3.25;;
26820;SDS011;37186;51.394;5.454;2023-08-07T10:59:30;3.15;;;3.05;;
26820;SDS011;37186;51.394;5.454;2023-08-07T11:02:31;2.97;;;2.88;;
26820;SDS011;37186;51.394;5.454;2023-08-07T11:05:36;2.92;;;2.83;;
26820;SDS011;37186;51.394;5.454;2023-08-07T11:08:37;3.03;;;2.92;;
26820;SDS011;37186;51.394;5.454;2023-08-07T11:11:42;3.15;;;3.05;;
26820;SDS011;37186;51.394;5.454;2023-08-07T11:14:46;3.22;;;3.13;;
26820;SDS011;37186;51.394;5.454;2023-08-07T11:17:47;3.28;;;3.17;;
26820;SDS011;37186;51.394;5.454;2023-08-07T11:20:49;3.53;;;3.42;;
26820;SDS011;37186;51.394;5.454;2023-08-07T11:23:49;3.55;;;3.45;;
26820;SDS011;37186;51.394;5.454;2023-08-07T11:26:50;3.67;;;3.58;;
26820;SDS011;37186;51.394;5.454;2023-08-07T11:29:51;3.80;;;3.70;;
26820;SDS011;37186;51.394;5.454;2023-08-07T11:32:52;4.00;;;3.90;;
26820;SDS011;37186;51.394;5.454;2023-08-07T11:35:52;3.92;;;3.83;;
26820;SDS011;37186;51.394;5.454;2023-08-07T11:38:54;4.05;;;3.95;;
26820;SDS011;37186;51.394;5.454;2023-08-07T11:41:54;4.32;;;4.22;;
26820;SDS011;37186;51.394;5.454;2023-08-07T11:44:55;4.18;;;4.07;;
26820;SDS011;37186;51.394;5.454;2023-08-07T11:47:55;3.72;;;3.63;;
26820;SDS011;37186;51.394;5.454;2023-08-07T11:50:56;4.30;;;4.20;;
26820;SDS011;37186;51.394;5.454;2023-08-07T11:53:58;3.97;;;3.88;;
26820;SDS011;37186;51.394;5.454;2023-08-07T11:56:59;4.40;;;4.30;;
26820;SDS011;37186;51.394;5.454;2023-08-07T12:00:00;3.67;;;3.58;;
26820;SDS011;37186;51.394;5.454;2023-08-07T12:03:00;3.60;;;3.50;;
26820;SDS011;37186;51.394;5.454;2023-08-07T12:06:02;3.90;;;3.80;;
26820;SDS011;37186;51.394;5.454;2023-08-07T12:09:04;3.80;;;3.70;;
26820;SDS011;37186;51.394;5.454;2023-08-07T12:12:12;3.92;;;3.83;;
26820;SDS011;37186;51.394;5.454;2023-08-07T12:15:12;3.90;;;3.80;;
26820;SDS011;37186;51.394;5.454;2023-08-07T12:18:13;4.30;;;4.20;;
26820;SDS011;37186;51.394;5.454;2023-08-07T12:21:18;4.32;;;4.22;;
26820;SDS011;37186;51.394;5.454;2023-08-07T12:24:23;4.38;;;4.28;;
26820;SDS011;37186;51.394;5.454;2023-08-07T12:27:24;4.38;;;4.28;;
26820;SDS011;37186;51.394;5.454;2023-08-07T12:30:26;4.07;;;3.97;;
26820;SDS011;37186;51.394;5.454;2023-08-07T12:33:28;4.15;;;4.05;;
26820;SDS011;37186;51.394;5.454;2023-08-07T12:36:28;4.07;;;3.97;;
26820;SDS011;37186;51.394;5.454;2023-08-07T12:39:29;4.25;;;4.15;;
26820;SDS011;37186;51.394;5.454;2023-08-07T12:42:29;3.97;;;3.88;;
26820;SDS011;37186;51.394;5.454;2023-08-07T12:45:30;3.40;;;3.30;;
26820;SDS011;37186;51.394;5.454;2023-08-07T12:48:32;3.42;;;3.33;;
26820;SDS011;37186;51.394;5.454;2023-08-07T12:51:32;4.10;;;4.00;;
26820;SDS011;37186;51.394;5.454;2023-08-07T12:54:33;4.40;;;4.30;;
26820;SDS011;37186;51.394;5.454;2023-08-07T12:57:33;4.53;;;4.43;;
26820;SDS011;37186;51.394;5.454;2023-08-07T13:00:34;4.22;;;4.13;;
26820;SDS011;37186;51.394;5.454;2023-08-07T13:03:34;4.15;;;4.05;;
26820;SDS011;37186;51.394;5.454;2023-08-07T13:06:35;4.53;;;4.43;;
26820;SDS011;37186;51.394;5.454;2023-08-07T13:09:36;5.15;;;5.05;;
26820;SDS011;37186;51.394;5.454;2023-08-07T13:12:37;4.25;;;4.15;;
26820;SDS011;37186;51.394;5.454;2023-08-07T13:15:39;4.82;;;4.72;;
26820;SDS011;37186;51.394;5.454;2023-08-07T13:18:39;5.10;;;5.00;;
26820;SDS011;37186;51.394;5.454;2023-08-07T13:21:40;4.70;;;4.60;;
26820;SDS011;37186;51.394;5.454;2023-08-07T13:24:40;4.30;;;4.20;;
26820;SDS011;37186;51.394;5.454;2023-08-07T13:27:41;4.40;;;4.30;;
26820;SDS011;37186;51.394;5.454;2023-08-07T13:30:41;4.55;;;4.45;;
26820;SDS011;37186;51.394;5.454;2023-08-07T13:33:42;3.75;;;3.65;;
26820;SDS011;37186;51.394;5.454;2023-08-07T13:36:43;4.35;;;4.25;;
26820;SDS011;37186;51.394;5.454;2023-08-07T13:39:43;4.03;;;3.92;;
26820;SDS011;37186;51.394;5.454;2023-08-07T13:42:45;4.50;;;4.40;;
26820;SDS011;37186;51.394;5.454;2023-08-07T13:45:46;4.20;;;4.10;;
26820;SDS011;37186;51.394;5.454;2023-08-07T13:48:47;3.70;;;3.60;;
26820;SDS011;37186;51.394;5.454;2023-08-07T13:51:48;3.75;;;3.65;;
26820;SDS011;37186;51.394;5.454;2023-08-07T13:54:50;3.67;;;3.58;;
26820;SDS011;37186;51.394;5.454;2023-08-07T13:57:51;3.53;;;3.42;;
26820;SDS011;37186;51.394;5.454;2023-08-07T14:00:51;3.63;;;3.53;;
26820;SDS011;37186;51.394;5.454;2023-08-07T14:03:52;3.60;;;3.50;;
26820;SDS011;37186;51.394;5.454;2023-08-07T14:06:52;4.55;;;4.45;;
26820;SDS011;37186;51.394;5.454;2023-08-07T14:09:53;3.95;;;3.85;;
26820;SDS011;37186;51.394;5.454;2023-08-07T14:12:53;4.63;;;4.53;;
26820;SDS011;37186;51.394;5.454;2023-08-07T14:15:54;4.60;;;4.50;;
26820;SDS011;37186;51.394;5.454;2023-08-07T14:18:54;5.40;;;5.30;;
26820;SDS011;37186;51.394;5.454;2023-08-07T14:21:55;3.92;;;3.83;;
26820;SDS011;37186;51.394;5.454;2023-08-07T14:24:55;4.40;;;4.30;;
26820;SDS011;37186;51.394;5.454;2023-08-07T14:27:56;4.80;;;4.70;;
26820;SDS011;37186;51.394;5.454;2023-08-07T14:30:57;4.45;;;4.35;;
26820;SDS011;37186;51.394;5.454;2023-08-07T14:33:59;4.78;;;4.68;;
26820;SDS011;37186;51.394;5.454;2023-08-07T14:36:59;3.72;;;3.63;;
26820;SDS011;37186;51.394;5.454;2023-08-07T14:40:01;3.85;;;3.75;;
26820;SDS011;37186;51.394;5.454;2023-08-07T14:43:02;4.15;;;4.05;;
26820;SDS011;37186;51.394;5.454;2023-08-07T14:46:03;4.07;;;3.97;;
26820;SDS011;37186;51.394;5.454;2023-08-07T14:49:03;4.65;;;4.55;;
26820;SDS011;37186;51.394;5.454;2023-08-07T14:52:04;4.45;;;4.35;;
26820;SDS011;37186;51.394;5.454;2023-08-07T14:55:05;4.15;;;4.05;;
26820;SDS011;37186;51.394;5.454;2023-08-07T14:58:06;3.97;;;3.88;;
26820;SDS011;37186;51.394;5.454;2023-08-07T15:01:07;4.07;;;3.97;;
26820;SDS011;37186;51.394;5.454;2023-08-07T15:04:07;4.70;;;4.60;;
26820;SDS011;37186;51.394;5.454;2023-08-07T15:07:09;5.32;;;5.22;;
26820;SDS011;37186;51.394;5.454;2023-08-07T15:10:10;4.45;;;4.35;;
26820;SDS011;37186;51.394;5.454;2023-08-07T15:13:11;6.63;;;6.43;;
26820;SDS011;37186;51.394;5.454;2023-08-07T15:16:11;4.90;;;4.80;;
26820;SDS011;37186;51.394;5.454;2023-08-07T15:19:12;5.60;;;5.50;;
26820;SDS011;37186;51.394;5.454;2023-08-07T15:22:12;5.53;;;5.43;;
26820;SDS011;37186;51.394;5.454;2023-08-07T15:25:13;5.53;;;5.43;;
26820;SDS011;37186;51.394;5.454;2023-08-07T15:28:14;5.60;;;5.47;;
26820;SDS011;37186;51.394;5.454;2023-08-07T15:31:14;5.45;;;5.35;;
26820;SDS011;37186;51.394;5.454;2023-08-07T15:34:15;4.97;;;4.88;;
26820;SDS011;37186;51.394;5.454;2023-08-07T15:37:15;3.83;;;3.72;;
26820;SDS011;37186;51.394;5.454;2023-08-07T15:40:16;3.95;;;3.85;;
26820;SDS011;37186;51.394;5.454;2023-08-07T15:43:17;4.20;;;4.10;;
26820;SDS011;37186;51.394;5.454;2023-08-07T15:46:17;4.40;;;4.30;;
26820;SDS011;37186;51.394;5.454;2023-08-07T15:49:18;4.68;;;4.57;;
26820;SDS011;37186;51.394;5.454;2023-08-07T15:52:18;4.90;;;4.80;;
26820;SDS011;37186;51.394;5.454;2023-08-07T15:55:19;5.80;;;5.60;;
26820;SDS011;37186;51.394;5.454;2023-08-07T15:58:20;5.85;;;5.68;;
26820;SDS011;37186;51.394;5.454;2023-08-07T16:01:22;6.18;;;5.97;;
26820;SDS011;37186;51.394;5.454;2023-08-07T16:04:23;6.78;;;6.57;;
26820;SDS011;37186;51.394;5.454;2023-08-07T16:07:23;7.35;;;7.15;;
26820;SDS011;37186;51.394;5.454;2023-08-07T16:10:24;7.47;;;7.28;;
26820;SDS011;37186;51.394;5.454;2023-08-07T16:13:27;6.10;;;5.90;;
26820;SDS011;37186;51.394;5.454;2023-08-07T16:16:28;6.35;;;6.15;;
26820;SDS011;37186;51.394;5.454;2023-08-07T16:19:29;6.38;;;6.18;;
26820;SDS011;37186;51.394;5.454;2023-08-07T16:22:29;6.35;;;6.15;;
26820;SDS011;37186;51.394;5.454;2023-08-07T16:25:30;5.97;;;5.78;;
26820;SDS011;37186;51.394;5.454;2023-08-07T16:28:31;5.25;;;5.15;;
26820;SDS011;37186;51.394;5.454;2023-08-07T16:31:31;6.63;;;6.43;;
26820;SDS011;37186;51.394;5.454;2023-08-07T16:34:32;6.38;;;6.18;;
26820;SDS011;37186;51.394;5.454;2023-08-07T16:37:33;5.82;;;5.63;;
26820;SDS011;37186;51.394;5.454;2023-08-07T16:40:34;6.22;;;6.03;;
26820;SDS011;37186;51.394;5.454;2023-08-07T16:43:35;5.50;;;5.40;;
26820;SDS011;37186;51.394;5.454;2023-08-07T16:46:36;6.15;;;5.95;;
26820;SDS011;37186;51.394;5.454;2023-08-07T16:49:36;6.15;;;5.95;;
26820;SDS011;37186;51.394;5.454;2023-08-07T16:52:37;6.45;;;6.25;;
26820;SDS011;37186;51.394;5.454;2023-08-07T16:55:37;6.63;;;6.43;;
26820;SDS011;37186;51.394;5.454;2023-08-07T16:58:38;6.43;;;6.22;;
26820;SDS011;37186;51.394;5.454;2023-08-07T17:01:40;6.07;;;5.88;;
26820;SDS011;37186;51.394;5.454;2023-08-07T17:04:41;6.07;;;5.88;;
26820;SDS011;37186;51.394;5.454;2023-08-07T17:07:42;7.60;;;7.40;;
26820;SDS011;37186;51.394;5.454;2023-08-07T17:10:42;8.15;;;7.95;;
26820;SDS011;37186;51.394;5.454;2023-08-07T17:13:43;7.85;;;7.65;;
26820;SDS011;37186;51.394;5.454;2023-08-07T17:16:44;7.32;;;7.13;;
26820;SDS011;37186;51.394;5.454;2023-08-07T17:19:44;8.27;;;8.07;;
26820;SDS011;37186;51.394;5.454;2023-08-07T17:22:45;8.25;;;8.05;;
26820;SDS011;37186;51.394;5.454;2023-08-07T17:25:45;7.50;;;7.30;;
26820;SDS011;37186;51.394;5.454;2023-08-07T17:28:46;7.20;;;7.00;;
26820;SDS011;37186;51.394;5.454;2023-08-07T17:31:46;6.90;;;6.70;;
26820;SDS011;37186;51.394;5.454;2023-08-07T17:34:47;7.88;;;7.68;;
26820;SDS011;37186;51.394;5.454;2023-08-07T17:37:48;8.45;;;8.25;;
26820;SDS011;37186;51.394;5.454;2023-08-07T17:40:49;8.80;;;8.55;;
26820;SDS011;37186;51.394;5.454;2023-08-07T17:43:49;8.30;;;8.10;;
26820;SDS011;37186;51.394;5.454;2023-08-07T17:46:50;8.02;;;7.82;;
26820;SDS011;37186;51.394;5.454;2023-08-07T17:49:52;9.27;;;8.98;;
26820;SDS011;37186;51.394;5.454;2023-08-07T17:52:52;7.47;;;7.28;;
26820;SDS011;37186;51.394;5.454;2023-08-07T17:55:54;7.45;;;7.25;;
26820;SDS011;37186;51.394;5.454;2023-08-07T17:58:54;6.78;;;6.57;;
26820;SDS011;37186;51.394;5.454;2023-08-07T18:01:56;7.68;;;7.47;;
26820;SDS011;37186;51.394;5.454;2023-08-07T18:04:56;9.13;;;8.82;;
26820;SDS011;37186;51.394;5.454;2023-08-07T18:07:57;8.60;;;8.40;;
26820;SDS011;37186;51.394;5.454;2023-08-07T18:10:57;9.52;;;9.23;;
26820;SDS011;37186;51.394;5.454;2023-08-07T18:13:58;10.25;;;9.95;;
26820;SDS011;37186;51.394;5.454;2023-08-07T18:16:58;10.15;;;9.85;;
26820;SDS011;37186;51.394;5.454;2023-08-07T18:19:59;9.82;;;9.52;;